Time;durP1;ratioP1;P1;durP2;ratioP2;P2;SDS_P1;SDS_P2;PMS_P1;PMS_P2;Temp;Humidity;BMP_temperature;BMP_pressure;BME280_temperature;BME280_humidity;BME280_pressure;Samples;Min_cycle;Max_cycle;Signal;HPM_P1;HPM_P2
2023/05/08 00:01:15;;;;;;;7.23;6.17;;;15.50;99.90;;;;;;5041496;28;20186;-35
2023/05/08 00:03:41;;;;;;;6.30;5.70;;;15.50;99.90;;;;;;5041000;28;20190;-38
2023/05/08 00:06:07;;;;;;;6.57;5.87;;;15.50;99.90;;;;;;5033458;28;20175;-35
2023/05/08 00:08:33;;;;;;;6.97;6.03;;;15.50;99.90;;;;;;5035768;28;20271;-35
2023/05/08 00:10:58;;;;;;;8.63;6.27;;;15.40;99.90;;;;;;5049098;28;20182;-39
2023/05/08 00:13:24;;;;;;;7.03;6.33;;;15.40;99.90;;;;;;5039182;28;20216;-36
2023/05/08 00:15:50;;;;;;;9.67;7.00;;;15.30;99.90;;;;;;5045892;28;20249;-35
2023/05/08 00:18:16;;;;;;;7.07;6.37;;;15.30;99.90;;;;;;5049019;28;20229;-36
2023/05/08 00:20:42;;;;;;;8.73;7.00;;;15.20;99.90;;;;;;5054555;28;20175;-38
2023/05/08 00:23:07;;;;;;;7.73;6.67;;;15.10;99.90;;;;;;5037406;28;20182;-36
2023/05/08 00:25:33;;;;;;;6.53;5.93;;;15.20;99.90;;;;;;5046859;28;20284;-36
2023/05/08 00:28:00;;;;;;;7.40;6.57;;;15.20;99.90;;;;;;5053155;28;20270;-35
2023/05/08 00:30:26;;;;;;;8.33;6.17;;;15.20;99.90;;;;;;5056141;28;20193;-35
2023/05/08 00:32:52;;;;;;;6.97;6.37;;;15.20;99.90;;;;;;5047588;28;20185;-36
2023/05/08 00:35:18;;;;;;;7.93;7.23;;;15.10;99.90;;;;;;5022587;28;20229;-36
2023/05/08 00:37:44;;;;;;;8.37;7.57;;;15.10;99.90;;;;;;5042418;28;20202;-35
2023/05/08 00:40:10;;;;;;;7.63;6.93;;;15.10;99.90;;;;;;5056388;28;20253;-35
2023/05/08 00:42:37;;;;;;;10.47;7.33;;;15.10;99.90;;;;;;5023507;28;20184;-35
2023/05/08 00:45:03;;;;;;;7.33;6.63;;;15.10;99.90;;;;;;5042253;28;20182;-35
2023/05/08 00:47:31;;;;;;;8.00;7.20;;;15.00;99.90;;;;;;5034493;28;20236;-36
2023/05/08 00:49:58;;;;;;;9.40;8.00;;;15.00;99.90;;;;;;5040871;28;20174;-39
2023/05/08 00:52:26;;;;;;;11.80;8.57;;;15.10;99.90;;;;;;5049383;28;20309;-36
2023/05/08 00:54:53;;;;;;;8.40;7.50;;;15.10;99.90;;;;;;5049026;28;20212;-35
2023/05/08 00:57:21;;;;;;;11.03;8.60;;;15.10;99.90;;;;;;5021623;28;20214;-36
2023/05/08 00:59:48;;;;;;;9.50;8.60;;;15.10;99.90;;;;;;5037767;28;20185;-36
2023/05/08 01:02:15;;;;;;;9.80;7.97;;;15.10;99.90;;;;;;5026638;28;20202;-35
2023/05/08 01:04:43;;;;;;;8.97;7.67;;;15.10;99.90;;;;;;5030423;28;20282;-35
2023/05/08 01:07:10;;;;;;;9.17;8.27;;;15.20;99.90;;;;;;5038106;28;20194;-37
2023/05/08 01:09:36;;;;;;;9.87;8.87;;;15.20;99.90;;;;;;5035522;28;20194;-35
2023/05/08 01:12:43;;;;;;;10.07;8.73;;;15.20;99.90;;;;;;5041537;28;20201;-36
2023/05/08 01:15:17;;;;;;;11.43;9.40;;;15.20;99.90;;;;;;4987999;28;20208;-35
2023/05/08 01:18:10;;;;;;;11.57;9.47;;;15.20;99.90;;;;;;5023621;28;20297;-35
2023/05/08 01:20:45;;;;;;;13.43;10.77;;;15.20;99.90;;;;;;5036825;28;20641;-37
2023/05/08 01:23:37;;;;;;;11.70;10.47;;;15.30;99.90;;;;;;5032730;28;20177;-36
2023/05/08 01:26:34;;;;;;;11.10;9.90;;;15.30;99.90;;;;;;5029449;28;20294;-36
2023/05/08 01:29:34;;;;;;;10.53;9.53;;;15.30;99.90;;;;;;5024035;28;20209;-35
2023/05/08 01:32:30;;;;;;;11.87;9.90;;;15.30;99.90;;;;;;5050631;28;20189;-35
2023/05/08 01:35:13;;;;;;;11.60;10.30;;;15.40;99.90;;;;;;5036732;28;20259;-35
2023/05/08 01:37:47;;;;;;;14.50;10.77;;;15.40;99.90;;;;;;5058218;28;20269;-36
2023/05/08 01:40:45;;;;;;;12.33;9.63;;;15.30;99.90;;;;;;5026113;28;20178;-35
2023/05/08 01:43:22;;;;;;;17.20;11.73;;;15.30;99.90;;;;;;5036309;28;20191;-36
2023/05/08 01:45:50;;;;;;;11.97;10.23;;;15.20;99.90;;;;;;5033707;28;20197;-35
2023/05/08 01:48:24;;;;;;;11.03;9.93;;;15.20;99.90;;;;;;5042352;28;20209;-36
2023/05/08 01:50:57;;;;;;;13.03;10.70;;;15.10;99.90;;;;;;5055166;28;20254;-35
2023/05/08 01:53:33;;;;;;;11.73;10.53;;;15.10;99.90;;;;;;5051815;28;20267;-36
2023/05/08 01:56:07;;;;;;;11.43;10.33;;;15.10;99.90;;;;;;5057088;28;20221;-39
2023/05/08 01:58:34;;;;;;;12.33;11.13;;;15.10;99.90;;;;;;5043084;28;20236;-36
2023/05/08 02:01:01;;;;;;;11.57;10.47;;;15.10;99.90;;;;;;5041883;28;20185;-35
2023/05/08 02:03:33;;;;;;;11.10;9.83;;;15.10;99.90;;;;;;5042908;28;20190;-35
2023/05/08 02:06:00;;;;;;;12.77;10.47;;;15.10;99.90;;;;;;5057756;28;20324;-35
2023/05/08 02:08:28;;;;;;;11.80;9.87;;;15.10;99.90;;;;;;5045207;28;20225;-35
2023/05/08 02:10:56;;;;;;;13.73;10.87;;;15.10;99.90;;;;;;5060501;28;20190;-35
2023/05/08 02:13:23;;;;;;;14.77;12.27;;;15.10;99.90;;;;;;5048324;28;20190;-36
2023/05/08 02:15:52;;;;;;;13.10;10.60;;;15.10;99.90;;;;;;5039336;28;20225;-35
2023/05/08 02:18:21;;;;;;;13.77;10.97;;;15.10;99.90;;;;;;5038584;28;20210;-35
2023/05/08 02:20:49;;;;;;;11.47;9.67;;;15.10;99.90;;;;;;5056200;28;20181;-35
2023/05/08 02:23:21;;;;;;;12.70;9.87;;;15.20;99.90;;;;;;5025720;28;20186;-35
2023/05/08 02:25:48;;;;;;;16.20;10.90;;;15.20;99.90;;;;;;5037150;28;20178;-35
2023/05/08 02:28:18;;;;;;;14.67;11.50;;;15.20;99.90;;;;;;5019317;28;20214;-35
2023/05/08 02:30:46;;;;;;;14.37;12.83;;;15.10;99.90;;;;;;5051497;28;20189;-35
2023/05/08 02:33:13;;;;;;;12.17;10.93;;;15.20;99.90;;;;;;5043205;28;20197;-37
2023/05/08 02:35:42;;;;;;;17.13;10.77;;;15.10;99.90;;;;;;5023304;28;20217;-37
2023/05/08 02:38:10;;;;;;;15.67;11.47;;;15.10;99.90;;;;;;5048348;28;20198;-35
2023/05/08 02:40:43;;;;;;;18.23;13.57;;;15.10;99.90;;;;;;5044794;28;20185;-37
2023/05/08 02:43:09;;;;;;;12.43;11.13;;;15.10;99.90;;;;;;5043372;28;20185;-35
2023/05/08 02:46:08;;;;;;;15.57;12.53;;;15.00;99.90;;;;;;5040235;28;20183;-35
2023/05/08 02:48:49;;;;;;;14.60;11.13;;;15.00;99.90;;;;;;5033370;28;20209;-35
2023/05/08 02:51:48;;;;;;;13.13;11.73;;;15.00;99.90;;;;;;5059935;28;20196;-36
2023/05/08 02:54:23;;;;;;;10.40;9.30;;;15.00;99.90;;;;;;5055319;28;20208;-35
2023/05/08 02:56:57;;;;;;;16.23;12.93;;;15.00;99.90;;;;;;5047908;28;20185;-35
2023/05/08 02:59:35;;;;;;;19.77;12.93;;;15.00;99.90;;;;;;5048764;28;20199;-35
2023/05/08 03:02:15;;;;;;;13.30;11.60;;;15.00;99.90;;;;;;5038405;28;20186;-36
2023/05/08 03:04:52;;;;;;;12.77;11.40;;;15.00;99.90;;;;;;5047879;28;20197;-35
2023/05/08 03:07:25;;;;;;;12.97;11.20;;;15.00;99.90;;;;;;5040428;28;20188;-35
2023/05/08 03:09:59;;;;;;;12.67;11.37;;;15.00;99.90;;;;;;5039190;28;20186;-36
2023/05/08 03:12:29;;;;;;;11.90;10.63;;;15.00;99.90;;;;;;5057967;28;20177;-35
2023/05/08 03:15:24;;;;;;;12.73;11.43;;;15.00;99.90;;;;;;5061536;28;20244;-35
2023/05/08 03:17:57;;;;;;;12.53;11.23;;;14.90;99.90;;;;;;5052563;28;20297;-38
2023/05/08 03:20:29;;;;;;;12.90;11.60;;;15.00;99.90;;;;;;5040317;28;20178;-36
2023/05/08 03:22:56;;;;;;;14.50;12.17;;;15.00;99.90;;;;;;5046300;28;20193;-39
2023/05/08 03:25:22;;;;;;;14.17;12.43;;;15.00;99.90;;;;;;5030082;28;20194;-36
2023/05/08 03:27:50;;;;;;;16.67;11.17;;;15.00;99.90;;;;;;5034905;28;20217;-36
2023/05/08 03:30:17;;;;;;;17.90;12.63;;;15.00;99.90;;;;;;5016496;28;20657;-36
2023/05/08 03:32:52;;;;;;;13.80;12.23;;;15.00;99.90;;;;;;5049411;28;20185;-36
2023/05/08 03:35:18;;;;;;;11.50;10.27;;;15.00;99.90;;;;;;5065861;28;20205;-37
2023/05/08 03:37:45;;;;;;;24.47;11.70;;;14.90;99.90;;;;;;5032502;28;20206;-36
2023/05/08 03:40:11;;;;;;;14.57;11.23;;;14.90;99.90;;;;;;5030601;28;20201;-35
2023/05/08 03:42:38;;;;;;;17.20;11.53;;;14.90;99.90;;;;;;5022920;28;20641;-37
2023/05/08 03:45:06;;;;;;;12.80;11.43;;;14.90;99.90;;;;;;5030895;28;20269;-36
2023/05/08 03:47:34;;;;;;;16.87;11.77;;;14.90;99.90;;;;;;5031336;28;20247;-36
2023/05/08 03:50:00;;;;;;;18.27;11.57;;;15.00;99.90;;;;;;5030758;28;20178;-35
2023/05/08 03:52:26;;;;;;;23.00;11.07;;;15.00;99.90;;;;;;5037449;28;20186;-36
2023/05/08 03:54:53;;;;;;;11.47;10.37;;;14.90;99.90;;;;;;5032201;28;20297;-36
2023/05/08 03:57:19;;;;;;;17.00;10.67;;;14.90;99.90;;;;;;5030936;28;20316;-36
2023/05/08 03:59:48;;;;;;;13.93;9.57;;;14.90;99.90;;;;;;5046735;28;20192;-36
2023/05/08 04:02:42;;;;;;;68.97;12.90;;;14.90;99.90;;;;;;5041170;28;20166;-35
2023/05/08 04:05:15;;;;;;;27.47;11.40;;;14.80;99.90;;;;;;5031686;28;20189;-37
2023/05/08 04:07:49;;;;;;;11.47;10.27;;;14.70;99.90;;;;;;5042936;28;20257;-37
2023/05/08 04:10:31;;;;;;;16.87;11.67;;;14.70;99.90;;;;;;5046475;28;20576;-36
2023/05/08 04:13:10;;;;;;;12.73;11.07;;;14.70;99.90;;;;;;5037868;28;20209;-38
2023/05/08 04:15:52;;;;;;;15.53;10.97;;;14.70;99.90;;;;;;5047485;28;20236;-35
2023/05/08 04:18:27;;;;;;;13.57;12.13;;;14.70;99.90;;;;;;5021480;28;20247;-37
2023/05/08 04:20:55;;;;;;;16.83;11.60;;;14.70;99.90;;;;;;5043489;28;20185;-35
2023/05/08 04:23:21;;;;;;;16.17;12.23;;;14.70;99.90;;;;;;5032906;28;20272;-35
2023/05/08 04:25:52;;;;;;;14.67;13.13;;;14.60;99.90;;;;;;5044323;28;20192;-35
2023/05/08 04:28:19;;;;;;;13.77;12.37;;;14.60;99.90;;;;;;5035043;28;20203;-36
2023/05/08 04:30:45;;;;;;;13.43;12.03;;;14.60;99.90;;;;;;5042956;28;20182;-36
2023/05/08 04:33:12;;;;;;;12.80;11.40;;;14.70;99.90;;;;;;5039678;28;20268;-36
2023/05/08 04:35:39;;;;;;;12.40;11.10;;;14.70;99.90;;;;;;5046366;28;20300;-35
2023/05/08 04:38:06;;;;;;;11.83;10.63;;;14.80;99.90;;;;;;5058655;28;20229;-36
2023/05/08 04:40:33;;;;;;;11.53;10.33;;;14.80;99.90;;;;;;5022216;28;20186;-36
2023/05/08 04:42:59;;;;;;;10.83;9.80;;;14.80;99.90;;;;;;5020225;28;20182;-35
2023/05/08 04:45:26;;;;;;;12.10;10.90;;;14.80;99.90;;;;;;5041231;28;20178;-36
2023/05/08 04:47:51;;;;;;;13.13;10.30;;;14.80;99.90;;;;;;5018553;28;20205;-35
2023/05/08 04:50:17;;;;;;;16.53;11.37;;;14.90;99.90;;;;;;5037043;28;20181;-35
2023/05/08 04:52:43;;;;;;;11.97;10.80;;;14.80;99.90;;;;;;5040349;28;20196;-35
2023/05/08 04:55:09;;;;;;;12.43;11.23;;;14.90;99.90;;;;;;5033809;28;20209;-36
2023/05/08 04:57:37;;;;;;;12.13;10.93;;;14.90;99.90;;;;;;5025992;28;20260;-36
2023/05/08 05:00:05;;;;;;;12.93;11.63;;;15.00;99.90;;;;;;5065764;28;20186;-35
2023/05/08 05:02:33;;;;;;;12.57;11.30;;;15.00;99.90;;;;;;5036507;28;20226;-36
2023/05/08 05:05:00;;;;;;;14.60;11.63;;;15.00;99.90;;;;;;5034079;28;20187;-36
2023/05/08 05:07:27;;;;;;;11.93;9.93;;;15.00;99.90;;;;;;5020115;28;20206;-35
2023/05/08 05:09:53;;;;;;;12.47;11.27;;;15.00;99.90;;;;;;5035329;28;20185;-36
2023/05/08 05:12:19;;;;;;;10.43;9.43;;;15.10;99.90;;;;;;5020573;28;20189;-36
2023/05/08 05:14:45;;;;;;;11.00;9.90;;;15.10;99.90;;;;;;5058710;28;20210;-35
2023/05/08 05:17:11;;;;;;;11.80;10.60;;;15.10;99.90;;;;;;5062579;28;20185;-35
2023/05/08 05:19:36;;;;;;;11.50;10.33;;;15.20;99.90;;;;;;5057405;28;20174;-36
2023/05/08 05:22:02;;;;;;;12.27;10.27;;;15.20;99.90;;;;;;5052816;28;20224;-36
2023/05/08 05:24:30;;;;;;;11.27;10.17;;;15.30;99.90;;;;;;5032626;28;20181;-35
2023/05/08 05:26:57;;;;;;;13.03;11.63;;;15.20;99.90;;;;;;5029273;28;20208;-38
2023/05/08 05:29:23;;;;;;;11.77;10.57;;;15.30;99.90;;;;;;5045181;28;20722;-38
2023/05/08 05:31:49;;;;;;;11.77;10.63;;;15.40;99.90;;;;;;5045259;28;20189;-39
2023/05/08 05:34:15;;;;;;;12.27;10.97;;;15.30;99.90;;;;;;5025915;28;20214;-38
2023/05/08 05:36:41;;;;;;;11.83;10.43;;;15.40;99.90;;;;;;5041407;28;20194;-41
2023/05/08 05:39:07;;;;;;;13.30;10.53;;;15.40;99.90;;;;;;5047782;28;20198;-38
2023/05/08 05:41:33;;;;;;;12.17;10.97;;;15.40;99.90;;;;;;5031470;28;20400;-38
2023/05/08 05:43:59;;;;;;;10.63;9.53;;;15.50;99.90;;;;;;5034552;28;20187;-38
2023/05/08 05:46:31;;;;;;;11.07;10.00;;;15.50;99.90;;;;;;5046827;28;20182;-38
2023/05/08 05:48:58;;;;;;;13.80;11.70;;;15.50;99.90;;;;;;5028137;28;20205;-38
2023/05/08 05:51:24;;;;;;;12.63;11.40;;;15.50;99.90;;;;;;5017935;28;20177;-38
2023/05/08 05:53:50;;;;;;;13.20;11.90;;;15.50;99.90;;;;;;5036677;28;20183;-38
2023/05/08 05:56:16;;;;;;;13.23;11.93;;;15.50;99.90;;;;;;5031834;28;20213;-38
2023/05/08 05:58:44;;;;;;;12.80;11.43;;;15.50;99.90;;;;;;5053296;28;20230;-38
2023/05/08 06:01:12;;;;;;;13.00;11.70;;;15.50;99.90;;;;;;5042679;28;20182;-38
2023/05/08 06:03:38;;;;;;;12.73;11.43;;;15.50;99.90;;;;;;5053710;28;20259;-37
2023/05/08 06:06:04;;;;;;;13.27;11.83;;;15.50;99.90;;;;;;5043970;28;20241;-38
2023/05/08 06:08:30;;;;;;;13.07;11.77;;;15.50;99.90;;;;;;5014377;28;20217;-38
2023/05/08 06:10:56;;;;;;;12.53;11.33;;;15.50;99.90;;;;;;5022893;28;20191;-38
2023/05/08 06:13:22;;;;;;;12.33;11.00;;;15.50;99.90;;;;;;5030032;28;20181;-38
2023/05/08 06:15:49;;;;;;;12.57;11.27;;;15.60;99.90;;;;;;5047957;28;20205;-38
2023/05/08 06:18:15;;;;;;;13.23;11.10;;;15.60;99.90;;;;;;5038577;28;20218;-38
2023/05/08 06:20:42;;;;;;;12.10;10.80;;;15.60;99.90;;;;;;5044623;28;20221;-38
2023/05/08 06:23:08;;;;;;;10.93;9.83;;;15.60;99.90;;;;;;5037240;28;20235;-37
2023/05/08 06:25:34;;;;;;;9.97;9.03;;;15.60;99.90;;;;;;5045098;28;20174;-38
2023/05/08 06:27:59;;;;;;;10.77;9.67;;;15.60;99.90;;;;;;5054590;28;20210;-38
2023/05/08 06:30:25;;;;;;;11.93;10.40;;;15.60;99.90;;;;;;5031833;28;20183;-38
2023/05/08 06:32:51;;;;;;;13.93;12.37;;;15.70;99.90;;;;;;5028696;28;20186;-38
2023/05/08 06:35:18;;;;;;;12.90;11.20;;;15.70;99.90;;;;;;5045309;28;20214;-39
2023/05/08 06:37:45;;;;;;;13.13;11.47;;;15.80;99.90;;;;;;5060560;28;20202;-38
2023/05/08 06:40:12;;;;;;;10.83;9.70;;;15.80;99.90;;;;;;5041470;28;20577;-38
2023/05/08 06:42:38;;;;;;;12.00;10.53;;;15.90;99.90;;;;;;5042918;28;20645;-38
2023/05/08 06:45:06;;;;;;;13.10;11.70;;;15.90;99.90;;;;;;5037194;28;20194;-38
2023/05/08 06:47:32;;;;;;;12.80;11.40;;;16.00;99.90;;;;;;5039325;28;20676;-38
2023/05/08 06:49:59;;;;;;;12.40;11.10;;;16.00;99.90;;;;;;5037912;28;20193;-38
2023/05/08 06:52:24;;;;;;;12.97;11.57;;;16.00;99.90;;;;;;5049073;28;20186;-38
2023/05/08 06:54:50;;;;;;;12.13;10.93;;;16.00;99.90;;;;;;5059073;28;20208;-38
2023/05/08 06:57:16;;;;;;;10.87;9.77;;;15.90;99.90;;;;;;5068641;28;20182;-38
2023/05/08 06:59:42;;;;;;;11.30;10.17;;;15.90;99.90;;;;;;5033143;28;20171;-38
2023/05/08 07:02:11;;;;;;;11.37;10.13;;;15.90;99.90;;;;;;5014738;28;20189;-38
2023/05/08 07:04:37;;;;;;;10.30;9.27;;;15.80;99.90;;;;;;5041848;28;20186;-38
2023/05/08 07:07:05;;;;;;;10.43;9.40;;;15.70;99.90;;;;;;5044537;28;20182;-38
2023/05/08 07:09:31;;;;;;;10.13;9.13;;;15.70;99.90;;;;;;5044867;28;20202;-38
2023/05/08 07:11:57;;;;;;;11.07;9.90;;;15.80;99.90;;;;;;5036726;28;20252;-39
2023/05/08 07:14:23;;;;;;;10.00;9.00;;;15.80;99.90;;;;;;5022833;28;20233;-38
2023/05/08 07:16:48;;;;;;;9.80;8.40;;;15.90;99.90;;;;;;5052201;28;20631;-38
2023/05/08 07:19:14;;;;;;;11.77;8.83;;;15.90;99.90;;;;;;5060207;28;20199;-38
2023/05/08 07:21:40;;;;;;;9.53;8.03;;;16.00;99.90;;;;;;5041422;28;20193;-38
2023/05/08 07:24:06;;;;;;;9.00;7.80;;;16.00;99.90;;;;;;5043029;28;20681;-39
2023/05/08 07:26:32;;;;;;;9.53;8.30;;;16.10;99.90;;;;;;5041773;28;20244;-38
2023/05/08 07:28:58;;;;;;;8.90;7.93;;;16.10;99.90;;;;;;5035963;28;20202;-38
2023/05/08 07:31:25;;;;;;;8.80;7.90;;;16.00;99.90;;;;;;5041614;28;20182;-38
2023/05/08 07:33:50;;;;;;;8.07;7.27;;;16.00;99.90;;;;;;5051219;28;20186;-38
2023/05/08 07:36:16;;;;;;;9.23;7.70;;;16.10;99.90;;;;;;5063781;28;20206;-38
2023/05/08 07:38:42;;;;;;;7.60;6.80;;;16.00;99.90;;;;;;5037308;28;20197;-39
2023/05/08 07:41:08;;;;;;;9.43;8.43;;;16.10;99.90;;;;;;5051970;28;20183;-39
2023/05/08 07:43:34;;;;;;;7.40;6.70;;;16.20;99.90;;;;;;5031041;28;20186;-39
2023/05/08 07:46:00;;;;;;;8.27;7.13;;;16.30;99.90;;;;;;5036719;28;20174;-39
2023/05/08 07:48:26;;;;;;;8.55;7.05;;;16.40;99.90;;;;;;5050807;28;20207;-39
2023/05/08 07:50:52;;;;;;;8.02;7.22;;;16.50;99.90;;;;;;5039214;28;20179;-39
2023/05/08 07:53:18;;;;;;;7.95;7.25;;;16.60;99.90;;;;;;5049801;28;20686;-39
2023/05/08 07:55:44;;;;;;;7.80;7.00;;;16.70;99.90;;;;;;5047914;28;20289;-44
2023/05/08 07:58:10;;;;;;;8.48;7.68;;;16.80;99.90;;;;;;5031857;28;20292;-41
2023/05/08 08:00:36;;;;;;;8.50;7.40;;;16.80;99.90;;;;;;5046797;28;20210;-42
2023/05/08 08:03:03;;;;;;;10.57;8.55;;;16.80;99.90;;;;;;5030852;28;20193;-39
2023/05/08 08:05:28;;;;;;;7.50;6.80;;;16.90;99.90;;;;;;5038546;28;20228;-41
2023/05/08 08:07:54;;;;;;;9.57;8.68;;;17.00;99.90;;;;;;5052527;28;20242;-40
2023/05/08 08:10:20;;;;;;;8.35;7.55;;;17.10;99.90;;;;;;5048348;28;20186;-41
2023/05/08 08:12:46;;;;;;;9.63;8.55;;;17.10;99.90;;;;;;5055143;28;20186;-41
2023/05/08 08:15:11;;;;;;;10.13;8.27;;;17.20;99.90;;;;;;5047104;28;20237;-40
2023/05/08 08:17:37;;;;;;;9.25;7.95;;;17.30;99.90;;;;;;5042190;28;20283;-39
2023/05/08 08:20:03;;;;;;;10.88;8.50;;;17.30;99.90;;;;;;5039623;28;20178;-39
2023/05/08 08:22:29;;;;;;;8.75;7.43;;;17.30;99.90;;;;;;5042055;28;20175;-40
2023/05/08 08:24:56;;;;;;;8.00;7.03;;;17.30;99.90;;;;;;5041860;28;20182;-40
2023/05/08 08:27:22;;;;;;;7.10;6.40;;;17.30;99.90;;;;;;5013664;28;20195;-39
2023/05/08 08:29:48;;;;;;;6.30;5.70;;;17.30;99.90;;;;;;5056886;28;20181;-39
2023/05/08 08:32:14;;;;;;;6.20;5.60;;;17.40;99.90;;;;;;5032937;28;20240;-40
2023/05/08 08:34:40;;;;;;;6.00;5.40;;;17.40;99.90;;;;;;5033231;28;20203;-38
2023/05/08 08:37:06;;;;;;;7.75;6.95;;;17.50;99.90;;;;;;5052339;28;20248;-40
2023/05/08 08:39:35;;;;;;;9.43;8.43;;;17.50;99.90;;;;;;5034160;28;20209;-40
2023/05/08 08:42:01;;;;;;;9.95;8.93;;;17.50;99.90;;;;;;5042862;28;20301;-39
2023/05/08 08:44:27;;;;;;;12.35;11.15;;;17.50;99.90;;;;;;5065637;28;20182;-41
2023/05/08 08:46:53;;;;;;;13.98;10.70;;;17.50;99.90;;;;;;5038141;28;20778;-39
2023/05/08 08:49:27;;;;;;;11.88;10.73;;;17.60;99.90;;;;;;5037883;28;20194;-39
2023/05/08 08:51:58;;;;;;;15.18;12.18;;;17.60;99.90;;;;;;5049352;28;20257;-40
2023/05/08 08:54:28;;;;;;;15.40;13.15;;;17.60;99.90;;;;;;5059981;28;20296;-38
2023/05/08 08:56:55;;;;;;;14.02;12.52;;;17.50;99.90;;;;;;5049302;28;20182;-39
2023/05/08 08:59:23;;;;;;;15.82;13.77;;;17.50;99.90;;;;;;5049944;28;20207;-38
2023/05/08 09:01:53;;;;;;;14.93;12.75;;;17.50;99.90;;;;;;5034373;28;20206;-39
2023/05/08 09:04:19;;;;;;;15.50;13.88;;;17.50;99.90;;;;;;5040392;28;20193;-39
2023/05/08 09:06:48;;;;;;;15.48;13.10;;;17.50;99.90;;;;;;5045904;28;20190;-38
2023/05/08 09:09:13;;;;;;;15.38;13.77;;;17.40;99.90;;;;;;5036543;28;20243;-39
2023/05/08 09:11:41;;;;;;;15.38;13.35;;;17.40;99.90;;;;;;5046818;28;20183;-38
2023/05/08 09:14:08;;;;;;;14.38;12.68;;;17.40;99.90;;;;;;5037815;28;20189;-39
2023/05/08 09:16:34;;;;;;;13.00;11.60;;;17.40;99.90;;;;;;5029562;28;20179;-43
2023/05/08 09:19:01;;;;;;;13.65;11.98;;;17.50;99.90;;;;;;5028282;28;20205;-39
2023/05/08 09:21:28;;;;;;;13.32;11.93;;;17.50;99.90;;;;;;5047841;28;20197;-39
2023/05/08 09:24:04;;;;;;;12.75;11.43;;;17.50;99.90;;;;;;5041060;28;20186;-38
2023/05/08 09:26:35;;;;;;;12.70;11.32;;;17.60;99.90;;;;;;5049297;28;20265;-41
2023/05/08 09:29:08;;;;;;;12.77;11.55;;;17.60;99.90;;;;;;5052284;28;20277;-39
2023/05/08 09:31:40;;;;;;;11.32;10.13;;;17.60;99.90;;;;;;5043757;28;20181;-39
2023/05/08 09:34:10;;;;;;;11.52;10.32;;;17.60;99.90;;;;;;5037168;28;20233;-38
2023/05/08 09:36:38;;;;;;;11.80;10.60;;;17.60;99.90;;;;;;5021206;28;20182;-38
2023/05/08 09:39:09;;;;;;;14.13;10.82;;;17.60;99.90;;;;;;5057424;28;20225;-38
2023/05/08 09:41:34;;;;;;;12.10;10.18;;;17.60;99.90;;;;;;5048260;28;20177;-39
2023/05/08 09:44:06;;;;;;;10.95;9.85;;;17.60;99.90;;;;;;5049160;28;20178;-40
2023/05/08 09:46:33;;;;;;;11.05;9.95;;;17.50;99.90;;;;;;5032496;28;20245;-41
2023/05/08 09:49:00;;;;;;;11.32;10.18;;;17.50;99.90;;;;;;5040848;28;20191;-38
2023/05/08 09:51:28;;;;;;;12.60;10.50;;;17.40;99.90;;;;;;5032433;28;20182;-40
2023/05/08 09:53:56;;;;;;;13.75;11.52;;;17.40;99.90;;;;;;5041410;28;20239;-38
2023/05/08 09:56:36;;;;;;;11.85;10.63;;;17.30;99.90;;;;;;5051403;28;20278;-39
2023/05/08 09:59:03;;;;;;;13.45;11.55;;;17.30;99.90;;;;;;5062951;28;20672;-38
2023/05/08 10:01:34;;;;;;;13.25;11.85;;;17.20;99.90;;;;;;5044696;28;20181;-39
2023/05/08 10:04:00;;;;;;;12.45;11.25;;;17.10;99.90;;;;;;5032980;28;20189;-38
2023/05/08 10:06:27;;;;;;;13.13;11.75;;;17.10;99.90;;;;;;5057735;28;20190;-38
2023/05/08 10:09:14;;;;;;;11.75;9.45;;;16.90;99.90;;;;;;5048675;28;20213;-35
2023/05/08 10:11:53;;;;;;;9.55;8.13;;;16.90;99.90;;;;;;5043404;28;20186;-36
2023/05/08 10:14:20;;;;;;;9.55;8.38;;;17.00;99.90;;;;;;5044099;28;20178;-37
2023/05/08 10:16:48;;;;;;;10.75;9.65;;;16.70;99.90;;;;;;5034447;28;20181;-35
2023/05/08 10:19:16;;;;;;;10.23;8.43;;;16.50;99.90;;;;;;5056071;28;20205;-35
2023/05/08 10:21:49;;;;;;;11.00;9.93;;;16.60;99.90;;;;;;5048015;28;20193;-35
2023/05/08 10:24:25;;;;;;;9.63;8.73;;;16.70;99.90;;;;;;5053847;28;20170;-36
2023/05/08 10:27:19;;;;;;;10.00;8.80;;;16.70;99.90;;;;;;5036514;28;20177;-37
2023/05/08 10:29:55;;;;;;;9.80;8.80;;;16.80;99.90;;;;;;5065116;28;20186;-36
2023/05/08 10:32:23;;;;;;;8.30;7.47;;;16.90;99.90;;;;;;5041834;28;20201;-35
2023/05/08 10:34:58;;;;;;;9.60;8.60;;;16.90;99.90;;;;;;5040767;28;20201;-35
2023/05/08 10:37:29;;;;;;;9.07;7.82;;;16.90;99.90;;;;;;5040376;28;20198;-38
2023/05/08 10:39:57;;;;;;;10.18;9.18;;;16.90;99.90;;;;;;5048125;28;20178;-36
2023/05/08 10:42:26;;;;;;;11.13;10.07;;;16.90;99.90;;;;;;5036335;28;20190;-39
2023/05/08 10:44:54;;;;;;;12.02;10.80;;;16.80;99.90;;;;;;5035817;28;20324;-36
2023/05/08 10:47:51;;;;;;;12.23;10.32;;;16.70;99.90;;;;;;5067460;28;20204;-35
2023/05/08 10:50:56;;;;;;;11.13;10.02;;;16.70;99.90;;;;;;5047046;28;20269;-35
2023/05/08 10:53:45;;;;;;;10.98;9.73;;;16.60;99.90;;;;;;5023104;28;20702;-35
2023/05/08 10:56:12;;;;;;;10.82;9.77;;;16.70;99.90;;;;;;5035903;28;20221;-36
2023/05/08 10:58:40;;;;;;;10.40;9.30;;;16.70;99.90;;;;;;5031087;28;20206;-37
2023/05/08 11:01:07;;;;;;;9.95;8.98;;;16.70;99.90;;;;;;5039656;28;20178;-35
2023/05/08 11:03:42;;;;;;;9.80;8.93;;;16.80;99.90;;;;;;5062268;28;20170;-35
2023/05/08 11:06:08;;;;;;;10.38;9.27;;;16.80;99.90;;;;;;5061624;28;20182;-35
2023/05/08 11:08:49;;;;;;;9.10;8.30;;;16.80;99.90;;;;;;5036418;28;20249;-35
2023/05/08 11:11:34;;;;;;;11.52;10.10;;;16.90;99.90;;;;;;5042259;28;20190;-35
2023/05/08 11:14:16;;;;;;;10.50;9.40;;;16.70;99.90;;;;;;5068190;28;20178;-37
2023/05/08 11:16:55;;;;;;;9.90;8.48;;;16.90;99.90;;;;;;5041562;28;20190;-35
2023/05/08 11:19:25;;;;;;;7.95;7.20;;;17.00;99.90;;;;;;5039673;28;20280;-38
2023/05/08 11:22:10;;;;;;;7.30;6.70;;;17.20;99.90;;;;;;5035284;28;20182;-35
2023/05/08 11:24:56;;;;;;;9.68;6.53;;;17.40;99.90;;;;;;5063324;28;20197;-35
2023/05/08 11:27:48;;;;;;;7.43;5.40;;;17.50;99.90;;;;;;5059634;28;20198;-36
2023/05/08 11:30:35;;;;;;;5.70;5.10;;;17.50;99.90;;;;;;5052422;28;20182;-36
2023/05/08 11:33:04;;;;;;;4.72;4.25;;;17.60;99.90;;;;;;5053475;28;20179;-36
2023/05/08 11:35:51;;;;;;;4.85;4.30;;;17.70;99.90;;;;;;5051192;28;20206;-37
2023/05/08 11:38:23;;;;;;;4.93;4.43;;;18.00;99.90;;;;;;5066935;28;20258;-36
2023/05/08 11:40:59;;;;;;;5.05;4.13;;;18.00;99.90;;;;;;5066066;28;20178;-36
2023/05/08 11:43:32;;;;;;;4.80;4.40;;;17.90;99.90;;;;;;5051107;28;20184;-37
2023/05/08 11:46:02;;;;;;;4.20;3.80;;;18.10;99.90;;;;;;5062874;28;20194;-36
2023/05/08 11:48:29;;;;;;;4.57;3.72;;;18.40;99.90;;;;;;5056200;28;20202;-36
2023/05/08 11:50:55;;;;;;;5.30;3.90;;;18.60;99.90;;;;;;5058591;28;20182;-38
2023/05/08 11:53:21;;;;;;;3.95;3.65;;;18.50;99.90;;;;;;5043227;28;20235;-36
2023/05/08 11:55:48;;;;;;;4.03;3.45;;;18.40;99.90;;;;;;5025089;28;20214;-36
2023/05/08 11:58:14;;;;;;;4.55;4.10;;;18.50;99.90;;;;;;5043869;28;20273;-37
2023/05/08 12:00:44;;;;;;;3.55;3.25;;;18.50;99.90;;;;;;5057276;28;20188;-36
2023/05/08 12:03:25;;;;;;;5.25;3.95;;;18.40;99.90;;;;;;5037529;28;20175;-37
2023/05/08 12:05:57;;;;;;;3.67;3.35;;;18.30;99.90;;;;;;5049226;28;20642;-36
2023/05/08 12:08:24;;;;;;;4.07;3.13;;;18.30;99.90;;;;;;5036125;28;20217;-37
2023/05/08 12:10:51;;;;;;;3.70;3.40;;;18.30;99.90;;;;;;5054637;28;20190;-35
2023/05/08 12:13:21;;;;;;;3.70;3.40;;;18.20;99.90;;;;;;5036500;28;20187;-36
2023/05/08 12:15:49;;;;;;;4.25;3.75;;;18.10;99.90;;;;;;5062711;28;20205;-35
2023/05/08 12:18:16;;;;;;;3.67;3.38;;;17.90;99.90;;;;;;5052882;28;20198;-36
2023/05/08 12:20:43;;;;;;;4.28;3.97;;;18.00;99.90;;;;;;5047341;28;20178;-36
2023/05/08 12:23:09;;;;;;;3.67;3.33;;;18.10;99.90;;;;;;5062259;28;20185;-36
2023/05/08 12:25:39;;;;;;;6.47;3.90;;;18.10;99.90;;;;;;5044261;28;20247;-36
2023/05/08 12:28:06;;;;;;;3.50;3.25;;;18.20;99.90;;;;;;5035645;28;20249;-36
2023/05/08 12:30:32;;;;;;;3.60;3.28;;;18.30;99.90;;;;;;5043003;28;20239;-36
2023/05/08 12:32:59;;;;;;;3.83;2.85;;;18.40;99.90;;;;;;5035163;28;20266;-36
2023/05/08 12:35:26;;;;;;;3.65;3.28;;;18.60;99.90;;;;;;5053654;28;20205;-38
2023/05/08 12:37:52;;;;;;;3.17;2.88;;;18.60;99.90;;;;;;5044403;28;20289;-36
2023/05/08 12:40:30;;;;;;;3.47;3.17;;;18.60;99.90;;;;;;5036344;28;20224;-36
2023/05/08 12:42:58;;;;;;;4.57;3.38;;;18.80;99.90;;;;;;5055844;28;20194;-35
2023/05/08 12:45:43;;;;;;;3.47;2.83;;;18.80;99.90;;;;;;5053573;28;20272;-36
2023/05/08 12:48:11;;;;;;;3.60;3.30;;;18.90;99.90;;;;;;5030420;28;20202;-36
2023/05/08 12:50:45;;;;;;;3.42;3.13;;;19.10;99.90;;;;;;5038522;28;20177;-36